EGPC

Wick Airport

Wick, United Kingdom
METAR EGPC 201920Z AUTO 21005KT 160V260 9999 FEW015/// SCT027/// OVC046/// 15/13 Q1018
Observed Flight Rules
Oct-20 @ 19:20 UTC (30 minutes ago) Visual Flight Rules
Wind Visibility Clouds
210° at 5 knots 10,000+ meters
  • Few at 1,500' AGL
  • Scattered at 2,700' AGL
  • Overcast at 4,600' AGL
Temperatures Readings
Current 15°C / 59°F
Dewpoint 13°C / 55°F
Humidity 88%
Altimeter 30.06" Hg
Pressure 1018 hPa
Elevation 39
METAR EGPC 201920Z AUTO 21005KT 160V260 9999 FEW015/// SCT027/// OVC046/// 15/13 Q1018
Observed Flight Rules
Oct-20 @ 19:20 UTC
(30 minutes ago)
VFR
Wind Visibility
210° at 5 knots 10,000+ meters
Clouds
  • Few at 1,500' AGL
  • Scattered at 2,700' AGL
  • Overcast at 4,600' AGL
Temperature Dewpoint
15°C / 59°F 13°C / 55°F
Humidity Altimeter Pressure
88% 30.06" Hg 1018 hPa